Time;durP1;ratioP1;P1;durP2;ratioP2;P2;SDS_P1;SDS_P2;PMS_P1;PMS_P2;Temp;Humidity;BMP_temperature;BMP_pressure;BME280_temperature;BME280_humidity;BME280_pressure;Samples;Min_cycle;Max_cycle;Signal;HPM_P1;HPM_P2
2021/10/23 03:19:00;;;;;;;;;5.60;5.00;;;;;13.39;38.63;98948.56;7586231;22;97696;-65
2021/10/23 03:22:04;;;;;;;;;3.00;2.40;;;;;13.37;38.64;98952.59;7513404;23;96414;-66
2021/10/23 03:25:09;;;;;;;;;5.00;4.00;;;;;13.29;39.04;98950.25;7513309;23;97696;-65
2021/10/23 03:28:12;;;;;;;;;3.00;3.00;;;;;13.33;38.88;98956.84;7514956;23;98335;-64
2021/10/23 03:31:15;;;;;;;;;4.00;4.00;;;;;13.35;38.77;98963.66;7550063;23;97779;-65
2021/10/23 03:34:20;;;;;;;;;4.60;4.00;;;;;13.30;39.17;98960.81;7550813;23;96474;-65
2021/10/23 03:37:23;;;;;;;;;3.00;3.00;;;;;13.24;39.27;98969.09;7525054;23;96428;-65
2021/10/23 03:40:27;;;;;;;;;5.00;4.00;;;;;13.19;39.67;98974.41;7524525;23;96525;-65
2021/10/23 03:43:31;;;;;;;;;5.00;4.00;;;;;13.14;39.54;98974.28;7551461;23;96589;-65
2021/10/23 03:46:34;;;;;;;;;4.00;4.00;;;;;12.96;40.59;98981.41;7524219;23;96556;-63
2021/10/23 03:49:41;;;;;;;;;3.00;3.00;;;;;12.90;40.56;98985.03;7525372;23;96547;-65
2021/10/23 03:52:44;;;;;;;;;4.00;4.00;;;;;13.01;40.18;98989.66;7512823;23;98391;-64
2021/10/23 03:55:48;;;;;;;;;4.00;3.00;;;;;12.95;40.65;98993.28;7550924;23;97005;-63
2021/10/23 03:58:51;;;;;;;;;2.00;2.00;;;;;12.94;41.00;98996.25;7524198;23;96623;-65
2021/10/23 04:01:55;;;;;;;;;3.00;3.00;;;;;12.93;40.91;99000.00;7551009;23;97404;-65
2021/10/23 04:04:59;;;;;;;;;3.00;3.00;;;;;13.01;40.97;99014.00;7550108;23;96449;-64
2021/10/23 04:08:03;;;;;;;;;2.00;2.00;;;;;12.97;40.93;99009.28;7550652;23;96498;-64
2021/10/23 04:11:06;;;;;;;;;2.00;2.00;;;;;12.91;41.29;99010.22;7551212;23;97363;-65
2021/10/23 04:14:09;;;;;;;;;3.00;2.00;;;;;12.91;41.14;99012.94;7550942;23;97768;-64
2021/10/23 04:17:13;;;;;;;;;2.60;2.00;;;;;12.76;41.77;99028.78;7550503;23;96314;-64
2021/10/23 04:20:17;;;;;;;;;2.80;2.80;;;;;12.66;41.99;99026.66;7532762;23;97256;-64
2021/10/23 04:23:21;;;;;;;;;2.50;2.50;;;;;12.61;41.92;99023.81;7559151;23;96618;-65
2021/10/23 04:26:24;;;;;;;;;3.00;3.00;;;;;12.51;42.11;99034.38;7586278;23;97360;-67
2021/10/23 04:29:29;;;;;;;;;3.00;3.00;;;;;12.59;41.70;99037.59;7559576;23;97128;-66
2021/10/23 04:32:32;;;;;;;;;3.00;3.00;;;;;12.55;41.78;99041.81;7586630;23;97388;-67
2021/10/23 04:35:37;;;;;;;;;4.00;3.00;;;;;12.54;41.95;99044.75;7587702;23;96940;-66
2021/10/23 04:38:40;;;;;;;;;3.80;3.80;;;;;12.45;42.26;99046.13;7587468;23;97513;-66
2021/10/23 04:41:44;;;;;;;;;3.00;3.00;;;;;12.53;41.83;99051.19;7583960;23;97502;-66
2021/10/23 04:44:48;;;;;;;;;3.00;3.00;;;;;12.36;42.43;99040.22;7558733;23;96689;-67
2021/10/23 04:47:51;;;;;;;;;3.00;3.00;;;;;12.47;42.09;99052.94;7586976;23;97531;-66
2021/10/23 04:50:55;;;;;;;;;4.00;3.00;;;;;12.53;41.73;99060.13;7587551;23;96387;-66
2021/10/23 04:53:59;;;;;;;;;2.00;2.00;;;;;12.53;42.01;99062.00;7587330;23;96444;-66
2021/10/23 04:57:02;;;;;;;;;3.00;2.00;;;;;12.52;42.05;99069.28;7587398;23;97406;-65
2021/10/23 05:00:07;;;;;;;;;4.67;3.00;;;;;12.50;42.11;99065.19;7585369;23;97296;-66
2021/10/23 05:03:12;;;;;;;;;4.00;4.00;;;;;12.59;41.87;99070.03;7587714;23;97333;-66
2021/10/23 05:06:16;;;;;;;;;4.00;4.00;;;;;12.64;41.61;99076.63;7560347;23;97403;-67
2021/10/23 05:09:20;;;;;;;;;3.00;3.00;;;;;12.75;41.43;99089.38;7583583;23;97547;-66
2021/10/23 05:12:23;;;;;;;;;3.00;3.00;;;;;12.72;41.58;99087.94;7586627;23;96459;-66
2021/10/23 05:15:26;;;;;;;;;2.20;2.20;;;;;12.72;41.28;99092.53;7584631;23;96734;-66
2021/10/23 05:18:30;;;;;;;;;3.00;3.00;;;;;12.74;41.25;99093.13;7586927;23;96775;-66
2021/10/23 05:21:35;;;;;;;;;2.40;2.40;;;;;12.69;41.50;99096.53;7586490;23;97177;-64
2021/10/23 05:24:39;;;;;;;;;4.60;4.00;;;;;12.73;41.35;99108.53;7587132;23;96700;-65
2021/10/23 05:27:42;;;;;;;;;5.00;4.00;;;;;12.56;41.32;99078.59;7586653;23;97343;-67
2021/10/23 05:30:45;;;;;;;;;3.75;3.00;;;;;12.72;41.24;99106.88;7560071;23;96872;-67
2021/10/23 05:33:49;;;;;;;;;3.00;3.00;;;;;12.65;41.39;99110.75;7574143;23;97291;-64
2021/10/23 05:36:54;;;;;;;;;4.00;3.40;;;;;12.69;41.11;99120.06;7576215;23;96380;-63
2021/10/23 05:39:57;;;;;;;;;3.60;3.00;;;;;12.80;40.88;99127.41;7587078;23;96498;-63
2021/10/23 05:43:00;;;;;;;;;4.00;4.00;;;;;12.57;41.51;99136.22;7586763;23;96644;-65
2021/10/23 05:46:04;;;;;;;;;4.00;4.00;;;;;12.75;41.02;99132.66;7586605;23;97942;-63
2021/10/23 05:49:07;;;;;;;;;3.20;3.00;;;;;12.91;40.69;99132.00;7586870;23;96960;-67
2021/10/23 05:52:12;;;;;;;;;2.00;2.00;;;;;13.04;40.43;99139.94;7557216;23;98369;-66
2021/10/23 05:55:15;;;;;;;;;3.80;3.00;;;;;13.22;39.71;99139.06;7559601;23;97755;-67
2021/10/23 05:58:18;;;;;;;;;2.20;2.20;;;;;13.63;39.07;99138.19;7585821;23;97116;-67
2021/10/23 06:01:22;;;;;;;;;3.40;3.40;;;;;13.94;38.80;99147.81;7586205;23;97518;-64
2021/10/23 06:04:26;;;;;;;;;3.00;3.00;;;;;14.43;37.77;99150.00;7586241;23;96384;-63
2021/10/23 06:07:32;;;;;;;;;2.20;2.00;;;;;14.83;36.95;99157.28;7586067;23;96526;-67
2021/10/23 06:10:36;;;;;;;;;2.00;2.00;;;;;15.41;35.86;99159.69;7586122;23;96374;-67
2021/10/23 06:13:39;;;;;;;;;4.00;3.00;;;;;16.21;34.45;99162.88;7558699;23;98301;-64
2021/10/23 06:16:43;;;;;;;;;3.00;3.00;;;;;17.31;32.63;99164.41;7558165;23;96984;-63
2021/10/23 06:19:46;;;;;;;;;4.00;4.00;;;;;18.91;30.30;99162.97;7584722;23;96362;-65
2021/10/23 06:22:52;;;;;;;;;3.00;3.00;;;;;19.60;28.61;99170.75;7586869;23;96850;-64
2021/10/23 06:25:55;;;;;;;;;5.00;3.00;;;;;19.02;29.63;99174.75;7585211;23;96455;-64
2021/10/23 06:28:59;;;;;;;;;3.00;3.00;;;;;19.19;29.29;99174.53;7586662;23;96534;-64
2021/10/23 06:32:03;;;;;;;;;3.00;3.00;;;;;19.50;28.75;99178.97;7586336;23;96502;-64
2021/10/23 06:35:06;;;;;;;;;4.00;3.00;;;;;19.13;28.91;99186.53;7560070;23;96394;-63
2021/10/23 06:38:11;;;;;;;;;5.00;4.00;;;;;18.46;29.99;99192.81;7586939;23;96723;-64
2021/10/23 06:41:14;;;;;;;;;3.00;3.00;;;;;17.80;30.88;99202.47;7559335;23;96425;-63
2021/10/23 06:44:17;;;;;;;;;4.00;3.00;;;;;19.04;29.47;99206.22;7586099;23;97394;-64
2021/10/23 06:47:21;;;;;;;;;3.20;3.00;;;;;20.02;28.35;99208.78;7560166;23;96491;-64
2021/10/23 06:50:24;;;;;;;;;3.80;2.00;;;;;20.62;27.12;99196.88;7585913;23;96889;-65
2021/10/23 06:53:31;;;;;;;;;4.00;4.00;;;;;22.50;24.93;99218.34;7586087;23;97343;-63
2021/10/23 06:56:35;;;;;;;;;5.00;3.00;;;;;22.62;24.21;99207.78;7585498;23;97287;-64
2021/10/23 06:59:38;;;;;;;;;4.00;3.40;;;;;23.94;22.37;99220.56;7585746;23;97430;-62
2021/10/23 07:02:42;;;;;;;;;4.00;3.00;;;;;24.93;21.44;99220.09;7585893;23;97068;-64
2021/10/23 07:05:47;;;;;;;;;3.80;2.80;;;;;26.47;20.08;99223.34;7584164;23;96479;-63
2021/10/23 07:08:52;;;;;;;;;2.00;2.00;;;;;26.73;19.71;99231.78;7585046;23;97305;-62
2021/10/23 07:11:56;;;;;;;;;2.75;2.75;;;;;25.65;20.80;99228.47;7585978;23;97333;-62
2021/10/23 07:15:00;;;;;;;;;5.00;4.00;;;;;24.54;21.77;99226.09;7558749;23;100032;-63
2021/10/23 07:18:03;;;;;;;;;3.40;3.00;;;;;24.48;21.58;99232.84;7586218;23;96845;-62
2021/10/23 07:21:07;;;;;;;;;2.00;2.00;;;;;25.38;20.76;99232.09;7585155;23;97475;-62
2021/10/23 07:24:11;;;;;;;;;2.75;2.75;;;;;24.98;20.99;99215.28;7559064;23;99507;-63
2021/10/23 07:27:15;;;;;;;;;3.00;2.75;;;;;23.36;22.45;99242.03;7587603;23;96365;-61
2021/10/23 07:30:18;;;;;;;;;1.75;1.75;;;;;22.90;22.93;99241.84;7587192;23;97419;-62
2021/10/23 07:33:21;;;;;;;;;3.00;3.00;;;;;22.07;23.86;99246.81;7587121;23;97329;-63
2021/10/23 07:36:25;;;;;;;;;3.00;3.00;;;;;22.27;23.67;99244.69;7587230;23;97437;-62
2021/10/23 07:39:30;;;;;;;;;2.00;2.00;;;;;21.96;24.23;99244.16;7565778;23;96650;-62
2021/10/23 07:42:36;;;;;;;;;3.00;2.40;;;;;23.01;23.35;99246.09;7556565;23;97780;-62
2021/10/23 07:45:39;;;;;;;;;2.00;2.00;;;;;23.29;22.77;99245.19;7585636;23;97121;-62
2021/10/23 07:48:43;;;;;;;;;2.00;2.00;;;;;22.35;23.71;99249.56;7548945;23;96635;-63
2021/10/23 07:51:46;;;;;;;;;3.40;3.40;;;;;21.22;24.56;99241.59;7576015;23;97063;-63
2021/10/23 07:54:51;;;;;;;;;2.60;2.00;;;;;20.19;26.26;99255.00;7560900;23;97484;-63
2021/10/23 07:57:54;;;;;;;;;3.00;3.00;;;;;19.55;27.18;99241.06;7586751;23;96391;-62
2021/10/23 08:00:58;;;;;;;;;3.00;2.50;;;;;20.24;26.64;99247.63;7559552;23;97217;-63
2021/10/23 08:04:02;;;;;;;;;2.00;2.00;;;;;21.72;24.70;99247.88;7586960;23;96720;-63
2021/10/23 08:07:06;;;;;;;;;3.00;2.20;;;;;22.48;23.82;99250.78;7587318;23;97319;-62
2021/10/23 08:10:11;;;;;;;;;3.00;2.60;;;;;22.38;23.95;99254.44;7587246;23;96961;-62
2021/10/23 08:13:14;;;;;;;;;3.00;2.00;;;;;21.64;24.57;99263.03;7560041;23;96867;-63
2021/10/23 08:16:18;;;;;;;;;3.00;3.00;;;;;20.92;25.71;99249.94;7587615;23;97394;-63
2021/10/23 08:19:22;;;;;;;;;1.80;1.80;;;;;20.90;26.05;99276.81;7586567;23;96668;-63
2021/10/23 08:22:25;;;;;;;;;4.00;3.60;;;;;22.65;23.81;99262.16;7587354;23;96785;-63
2021/10/23 08:25:30;;;;;;;;;3.00;2.00;;;;;23.50;23.05;99262.25;7587508;23;97038;-63
2021/10/23 08:28:33;;;;;;;;;3.00;3.00;;;;;23.56;22.83;99258.28;7584997;23;96545;-63
2021/10/23 08:31:37;;;;;;;;;3.50;3.00;;;;;23.99;22.39;99264.53;7587613;23;96529;-63
2021/10/23 08:34:40;;;;;;;;;2.00;2.00;;;;;24.66;21.42;99258.69;7587555;23;96964;-63
2021/10/23 08:37:45;;;;;;;;;2.60;2.60;;;;;24.09;22.08;99274.56;7535551;23;98449;-63
2021/10/23 08:40:52;;;;;;;;;2.00;2.00;;;;;22.56;23.23;99276.81;7587483;23;96792;-63
2021/10/23 08:43:55;;;;;;;;;3.60;3.00;;;;;22.33;23.68;99276.47;7587363;23;97410;-62
2021/10/23 08:46:59;;;;;;;;;4.40;3.40;;;;;22.28;24.01;99312.25;7532643;23;100111;-62
2021/10/23 08:50:04;;;;;;;;;3.00;2.00;;;;;21.51;24.80;99300.13;7578563;23;97019;-63
2021/10/23 08:53:08;;;;;;;;;3.25;2.00;;;;;20.38;26.10;99293.66;7586842;23;97333;-62
2021/10/23 08:56:12;;;;;;;;;3.00;3.00;;;;;19.70;27.03;99296.59;7586507;23;96951;-63
2021/10/23 08:59:18;;;;;;;;;3.20;2.20;;;;;19.26;27.70;99293.44;7586993;23;97311;-62
2021/10/23 09:02:27;;;;;;;;;3.00;3.00;;;;;18.84;28.20;99293.56;7560472;23;97410;-62
2021/10/23 09:05:33;;;;;;;;;3.00;3.00;;;;;18.42;28.78;99301.72;7587206;23;97409;-63
2021/10/23 09:08:36;;;;;;;;;2.00;2.00;;;;;18.11;29.29;99314.34;7559117;23;97864;-62
2021/10/23 09:11:44;;;;;;;;;3.00;3.00;;;;;17.80;30.01;99309.66;7560663;23;96581;-61
2021/10/23 09:14:48;;;;;;;;;3.80;3.00;;;;;17.93;30.00;99313.91;7586854;23;97308;-61
2021/10/23 09:17:52;;;;;;;;;3.00;3.00;;;;;18.00;29.92;99315.31;7586961;23;96531;-64
2021/10/23 09:20:56;;;;;;;;;2.00;2.00;;;;;18.84;29.03;99307.22;7558883;23;97486;-63
2021/10/23 09:24:19;;;;;;;;;2.50;2.50;;;;;19.68;27.74;99304.28;7586871;23;96431;-63
2021/10/23 09:27:24;;;;;;;;;4.00;3.00;;;;;19.99;27.24;99313.31;7587010;23;97074;-63
2021/10/23 09:30:33;;;;;;;;;4.00;4.00;;;;;21.01;26.22;99306.63;7558677;23;96673;-63
2021/10/23 09:33:36;;;;;;;;;4.00;3.00;;;;;21.91;24.91;99303.72;7587481;23;97500;-62
2021/10/23 09:36:51;;;;;;;;;3.00;3.00;;;;;22.38;24.39;99311.34;7585124;23;96671;-63
2021/10/23 09:40:18;;;;;;;;;2.00;1.00;;;;;21.88;24.66;99310.63;7586400;23;96611;-63
2021/10/23 09:43:25;;;;;;;;;4.00;3.40;;;;;21.30;25.12;99315.06;7586955;23;97382;-63
2021/10/23 09:46:29;;;;;;;;;3.00;2.00;;;;;22.59;23.97;99312.78;7586841;23;97350;-63
2021/10/23 09:49:32;;;;;;;;;3.00;3.00;;;;;23.49;22.72;99325.84;7558147;23;97586;-63
2021/10/23 09:52:58;;;;;;;;;4.00;4.00;;;;;24.83;21.67;99316.78;7586989;23;97512;-62
2021/10/23 09:56:01;;;;;;;;;2.00;2.00;;;;;25.80;20.36;99330.31;7586398;23;97396;-63
2021/10/23 09:59:08;;;;;;;;;2.20;2.00;;;;;26.68;19.20;99340.56;7559452;23;99990;-63
2021/10/23 10:02:15;;;;;;;;;3.00;2.00;;;;;27.06;18.62;99334.63;7586705;23;97457;-63
2021/10/23 10:05:18;;;;;;;;;3.00;3.00;;;;;26.39;18.93;99354.03;7587190;23;96921;-62
2021/10/23 10:08:23;;;;;;;;;2.00;2.00;;;;;25.22;20.43;99353.03;7560021;23;96413;-62
2021/10/23 10:11:26;;;;;;;;;3.00;3.00;;;;;23.99;21.79;99347.16;7556437;23;96612;-63
2021/10/23 10:14:35;;;;;;;;;4.60;4.00;;;;;23.36;22.28;99357.59;7557348;23;96558;-63
2021/10/23 10:17:39;;;;;;;;;4.00;3.00;;;;;22.31;23.09;99352.06;7586654;23;96928;-63
2021/10/23 10:20:44;;;;;;;;;3.00;3.00;;;;;21.67;23.89;99338.47;7586301;23;96620;-62
2021/10/23 10:23:49;;;;;;;;;3.00;3.00;;;;;20.61;25.37;99339.63;7586775;23;97261;-62
2021/10/23 10:26:57;;;;;;;;;3.25;3.25;;;;;20.01;26.24;99335.78;7586793;23;96628;-64
2021/10/23 10:30:23;;;;;;;;;3.00;3.00;;;;;19.60;26.99;99329.41;7586365;23;96856;-62
2021/10/23 10:33:31;;;;;;;;;5.00;4.00;;;;;19.23;27.51;99334.16;7560329;23;97384;-63
2021/10/23 10:36:37;;;;;;;;;4.00;3.40;;;;;18.86;28.17;99340.53;7585970;23;97971;-64
2021/10/23 10:39:52;;;;;;;;;4.00;3.00;;;;;18.48;28.51;99359.91;7586427;23;96464;-62
2021/10/23 10:42:58;;;;;;;;;3.00;3.00;;;;;18.89;28.45;99363.78;7585550;23;96939;-63
2021/10/23 10:46:05;;;;;;;;;4.00;3.60;;;;;19.10;27.88;99334.66;7585991;23;96897;-62
2021/10/23 10:49:40;;;;;;;;;4.60;4.00;;;;;19.36;27.60;99352.81;7586154;23;97376;-63
2021/10/23 10:53:20;;;;;;;;;3.60;3.60;;;;;20.33;26.61;99357.44;7586079;23;96929;-64
2021/10/23 10:56:23;;;;;;;;;5.00;4.00;;;;;21.07;25.35;99351.31;7584791;23;96505;-64
2021/10/23 10:59:52;;;;;;;;;4.00;4.00;;;;;21.62;24.68;99361.28;7585566;23;96512;-63
2021/10/23 11:02:57;;;;;;;;;5.80;4.00;;;;;22.10;23.96;99367.88;7585983;23;97829;-63
2021/10/23 11:06:45;;;;;;;;;4.80;2.80;;;;;22.76;23.63;99370.94;7584994;23;96336;-62
2021/10/23 11:09:49;;;;;;;;;3.00;3.00;;;;;22.23;23.32;99367.25;7570175;23;97303;-62
2021/10/23 11:12:52;;;;;;;;;4.00;3.00;;;;;21.77;24.23;99374.91;7569332;23;97463;-64
2021/10/23 11:15:55;;;;;;;;;4.00;3.00;;;;;21.05;24.80;99368.06;7583416;23;97349;-64
2021/10/23 11:19:00;;;;;;;;;4.00;3.00;;;;;20.32;25.45;99358.56;7584396;23;97399;-64
2021/10/23 11:22:11;;;;;;;;;4.00;4.00;;;;;19.47;27.10;99357.25;7582705;23;96756;-63
2021/10/23 11:25:16;;;;;;;;;4.00;3.33;;;;;18.92;27.67;99363.25;7581566;23;97287;-62
2021/10/23 11:28:19;;;;;;;;;5.00;4.00;;;;;18.34;28.80;99375.91;7583806;23;97503;-64
2021/10/23 11:31:23;;;;;;;;;4.00;4.00;;;;;17.93;29.66;99373.91;7585026;23;97439;-63
2021/10/23 11:34:34;;;;;;;;;5.60;5.00;;;;;17.28;31.02;99378.31;7530105;23;98297;-64
2021/10/23 11:37:38;;;;;;;;;3.60;3.60;;;;;17.19;31.36;99374.41;7582863;23;96361;-62
2021/10/23 11:40:42;;;;;;;;;4.00;4.00;;;;;16.97;31.84;99372.72;7581898;23;96958;-63
2021/10/23 11:43:45;;;;;;;;;6.40;5.40;;;;;16.78;32.19;99377.63;7555215;23;97347;-63
2021/10/23 11:46:56;;;;;;;;;5.50;5.50;;;;;16.39;32.88;99376.72;7583058;23;96690;-62
2021/10/23 11:50:03;;;;;;;;;3.40;3.40;;;;;16.29;33.45;99385.53;7555225;23;98273;-63
2021/10/23 11:53:12;;;;;;;;;6.00;5.00;;;;;16.27;33.30;99395.03;7556502;23;97423;-62
2021/10/23 11:56:15;;;;;;;;;5.00;5.00;;;;;16.23;33.72;99383.78;7585120;23;96755;-63
2021/10/23 11:59:23;;;;;;;;;6.00;5.60;;;;;16.30;33.86;99389.06;7557663;23;99842;-64
2021/10/23 12:02:40;;;;;;;;;4.75;4.75;;;;;16.31;33.88;99390.72;7556407;23;97151;-62
2021/10/23 12:05:48;;;;;;;;;5.60;4.40;;;;;16.39;34.00;99388.41;7583873;23;96772;-63
2021/10/23 12:08:52;;;;;;;;;8.00;7.00;;;;;16.39;34.01;99388.41;7582917;23;96924;-64
2021/10/23 12:12:06;;;;;;;;;9.00;7.00;;;;;16.26;34.30;99387.94;7533613;23;98838;-62
2021/10/23 12:15:17;;;;;;;;;5.20;5.00;;;;;16.35;34.41;99392.72;7586558;23;97392;-62
2021/10/23 12:18:27;;;;;;;;;8.00;7.00;;;;;16.29;34.45;99382.81;7586368;23;96504;-63
2021/10/23 12:21:41;;;;;;;;;6.00;5.60;;;;;16.26;34.67;99391.47;7586113;23;97397;-63
2021/10/23 12:24:47;;;;;;;;;7.00;5.00;;;;;17.17;34.07;99382.00;7586554;23;97455;-65
2021/10/23 12:27:59;;;;;;;;;8.60;7.00;;;;;17.83;32.14;99391.00;7583676;23;96914;-65
2021/10/23 12:31:02;;;;;;;;;7.40;7.00;;;;;17.88;31.50;99391.06;7555925;23;96944;-64
2021/10/23 12:34:06;;;;;;;;;9.25;7.50;;;;;18.21;31.04;99390.00;7586615;23;97287;-66
2021/10/23 12:37:11;;;;;;;;;5.40;5.00;;;;;18.07;31.36;99394.25;7586845;23;97151;-66
2021/10/23 12:40:31;;;;;;;;;6.00;6.00;;;;;18.00;31.64;99383.53;7585956;23;96549;-65
2021/10/23 12:43:34;;;;;;;;;7.00;5.00;;;;;18.13;31.36;99380.38;7556186;23;99436;-65
2021/10/23 12:46:37;;;;;;;;;6.00;4.25;;;;;17.97;31.15;99386.78;7558747;23;98510;-66
2021/10/23 12:49:41;;;;;;;;;6.80;5.00;;;;;17.55;31.27;99375.63;7584995;23;96502;-65
2021/10/23 12:52:45;;;;;;;;;6.20;5.00;;;;;17.52;31.55;99383.50;7583195;23;97888;-64
2021/10/23 12:55:49;;;;;;;;;6.00;5.00;;;;;17.39;31.81;99390.19;7557416;23;97241;-64
2021/10/23 12:58:52;;;;;;;;;5.75;4.00;;;;;17.03;32.63;99398.94;7585473;22;96383;-65
2021/10/23 13:01:55;;;;;;;;;6.00;6.00;;;;;16.85;33.03;99390.00;7558409;23;97133;-67
2021/10/23 13:04:59;;;;;;;;;6.00;6.00;;;;;16.72;34.14;99392.22;7558523;23;96989;-65
2021/10/23 13:08:06;;;;;;;;;5.00;5.00;;;;;16.63;34.62;99421.78;7586080;23;97469;-65
2021/10/23 13:11:10;;;;;;;;;7.00;6.25;;;;;16.44;36.82;99451.09;7585938;23;97445;-64
2021/10/23 13:14:13;;;;;;;;;2.50;2.50;;;;;15.90;39.29;99463.44;7559677;23;96552;-66
2021/10/23 13:17:16;;;;;;;;;4.00;3.60;;;;;15.49;40.68;99461.72;7558545;23;96523;-64
2021/10/23 13:20:19;;;;;;;;;5.00;4.67;;;;;15.29;41.86;99444.19;7585640;23;97411;-67
2021/10/23 13:23:24;;;;;;;;;3.00;2.00;;;;;14.99;42.15;99439.72;7586142;23;96469;-65
2021/10/23 13:26:28;;;;;;;;;4.00;4.00;;;;;14.92;42.40;99440.91;7584806;23;97097;-67
2021/10/23 13:29:32;;;;;;;;;3.75;3.75;;;;;14.76;43.50;99436.19;7587039;23;97408;-68
2021/10/23 13:32:35;;;;;;;;;5.00;4.40;;;;;14.63;44.34;99432.63;7586557;23;97465;-65
2021/10/23 13:35:39;;;;;;;;;4.00;3.00;;;;;14.57;44.35;99433.56;7559328;23;96471;-65
2021/10/23 13:38:43;;;;;;;;;3.75;3.75;;;;;14.54;44.49;99441.34;7560412;23;97830;-66
2021/10/23 13:41:47;;;;;;;;;4.00;4.00;;;;;14.41;44.27;99447.81;7558829;23;97866;-65
2021/10/23 13:44:51;;;;;;;;;3.80;3.00;;;;;14.34;44.37;99447.06;7560113;23;96509;-64
2021/10/23 13:47:54;;;;;;;;;5.40;5.00;;;;;14.29;44.01;99447.75;7583106;23;97123;-66
2021/10/23 13:50:57;;;;;;;;;3.00;3.00;;;;;14.22;44.66;99443.50;7583756;23;97387;-65
2021/10/23 13:54:02;;;;;;;;;4.00;3.00;;;;;14.18;43.90;99443.13;7560023;23;97851;-65
2021/10/23 13:57:06;;;;;;;;;4.00;3.60;;;;;14.17;44.28;99446.09;7585583;23;96594;-66
2021/10/23 14:00:10;;;;;;;;;6.00;4.40;;;;;14.24;44.18;99438.66;7559222;23;97007;-64
2021/10/23 14:03:19;;;;;;;;;4.00;4.00;;;;;14.30;44.48;99433.13;7585367;23;96794;-67
2021/10/23 14:06:22;;;;;;;;;6.00;5.00;;;;;14.31;44.61;99442.09;7584181;23;97428;-66
2021/10/23 14:09:27;;;;;;;;;4.00;3.20;;;;;14.37;44.48;99434.97;7587063;23;96602;-63
2021/10/23 14:12:30;;;;;;;;;4.00;3.40;;;;;14.42;46.33;99438.59;7586127;23;96575;-65
2021/10/23 14:15:35;;;;;;;;;6.00;4.60;;;;;14.44;45.46;99439.22;7585432;23;97027;-65
2021/10/23 14:18:39;;;;;;;;;4.00;4.00;;;;;14.53;44.07;99454.09;7559016;23;97886;-65
2021/10/23 14:21:42;;;;;;;;;6.00;4.00;;;;;14.60;43.24;99462.13;7585094;23;97103;-67
2021/10/23 14:24:47;;;;;;;;;6.00;6.00;;;;;14.65;42.51;99468.50;7586187;23;96576;-65
2021/10/23 14:27:57;;;;;;;;;5.00;5.00;;;;;14.65;42.56;99484.78;7585598;23;96338;-64
2021/10/23 14:31:01;;;;;;;;;4.25;4.00;;;;;14.70;42.60;99493.06;7586018;23;96468;-65
2021/10/23 14:34:04;;;;;;;;;6.00;5.50;;;;;14.70;42.41;99492.22;7585822;23;97445;-67
2021/10/23 14:37:08;;;;;;;;;6.00;6.00;;;;;14.61;42.55;99494.44;7585764;23;96557;-65
2021/10/23 14:40:14;;;;;;;;;5.00;5.00;;;;;14.59;42.45;99495.75;7585235;23;97039;-64
2021/10/23 14:43:17;;;;;;;;;6.00;5.25;;;;;14.70;43.83;99501.22;7559638;23;96615;-64
2021/10/23 14:46:21;;;;;;;;;6.00;5.00;;;;;14.76;42.53;99512.19;7585736;23;96416;-65
2021/10/23 14:49:24;;;;;;;;;5.00;4.00;;;;;14.46;43.12;99510.34;7533544;23;98290;-65
2021/10/23 14:52:28;;;;;;;;;5.75;4.00;;;;;14.24;43.53;99510.00;7558887;23;97326;-64
2021/10/23 14:55:33;;;;;;;;;4.60;4.60;;;;;14.11;43.78;99518.31;7559313;23;97404;-64
2021/10/23 14:58:38;;;;;;;;;5.25;5.00;;;;;14.03;43.92;99525.94;7558351;23;98365;-65
2021/10/23 15:01:42;;;;;;;;;7.20;7.20;;;;;13.94;44.12;99524.59;7545602;23;96423;-65
2021/10/23 15:04:46;;;;;;;;;5.00;4.00;;;;;13.99;43.86;99533.69;7559204;23;98312;-64
2021/10/23 15:07:49;;;;;;;;;5.00;5.00;;;;;13.98;43.88;99526.63;7585162;23;96499;-67
2021/10/23 15:10:54;;;;;;;;;5.00;5.00;;;;;14.01;44.02;99541.63;7584057;23;96969;-67
2021/10/23 15:13:57;;;;;;;;;4.00;3.60;;;;;14.04;43.70;99531.13;7558101;23;97383;-69
2021/10/23 15:17:01;;;;;;;;;4.00;4.00;;;;;14.00;43.60;99545.38;7585419;23;97096;-66
2021/10/23 15:20:05;;;;;;;;;5.20;5.00;;;;;13.95;43.32;99547.94;7585991;23;97437;-68
2021/10/23 15:23:09;;;;;;;;;6.00;5.00;;;;;13.96;43.72;99558.56;7529071;23;97168;-69
2021/10/23 15:26:13;;;;;;;;;5.00;5.00;;;;;13.88;43.69;99567.81;7547861;23;96702;-67
2021/10/23 15:29:20;;;;;;;;;7.40;7.00;;;;;13.80;44.02;99573.53;7585989;23;96785;-69
2021/10/23 15:32:25;;;;;;;;;7.00;5.20;;;;;13.74;44.45;99568.19;7587173;23;96941;-64
2021/10/23 15:35:35;;;;;;;;;7.75;6.00;;;;;13.58;44.47;99580.47;7586764;23;97950;-64
2021/10/23 15:38:44;;;;;;;;;3.00;3.00;;;;;13.49;44.69;99581.00;7558605;23;96698;-66
2021/10/23 15:41:55;;;;;;;;;5.50;5.00;;;;;13.44;44.84;99597.88;7586544;23;97464;-66
2021/10/23 15:44:59;;;;;;;;;6.00;5.00;;;;;13.35;45.03;99599.22;7586714;23;97516;-66
2021/10/23 15:48:04;;;;;;;;;5.00;5.00;;;;;13.34;44.84;99611.13;7586683;23;97318;-68
2021/10/23 15:51:08;;;;;;;;;6.40;6.40;;;;;13.27;45.05;99613.88;7561071;23;96585;-68
2021/10/23 15:54:12;;;;;;;;;8.00;6.00;;;;;13.26;45.25;99620.34;7586655;23;97469;-68
2021/10/23 15:57:16;;;;;;;;;9.00;6.60;;;;;13.24;45.20;99624.34;7587253;23;96365;-68
2021/10/23 16:00:20;;;;;;;;;6.00;6.00;;;;;13.21;45.49;99625.59;7586537;23;96878;-66
2021/10/23 16:03:23;;;;;;;;;6.75;6.00;;;;;13.23;45.33;99628.09;7586563;23;96444;-68
2021/10/23 16:06:26;;;;;;;;;8.00;6.60;;;;;13.31;45.08;99636.75;7586064;23;97082;-65
2021/10/23 16:09:30;;;;;;;;;8.50;7.00;;;;;13.39;45.22;99649.19;7560380;23;97892;-66
2021/10/23 16:12:35;;;;;;;;;7.60;7.60;;;;;13.53;45.23;99672.44;7559331;23;98558;-68
2021/10/23 16:15:38;;;;;;;;;9.00;8.00;;;;;13.64;45.04;99681.69;7534385;23;96835;-68
2021/10/23 16:18:42;;;;;;;;;9.40;7.40;;;;;13.68;44.92;99675.59;7586582;23;96896;-66
2021/10/23 16:21:45;;;;;;;;;9.25;7.25;;;;;13.77;44.65;99687.00;7558522;23;98863;-68
2021/10/23 16:24:48;;;;;;;;;9.20;8.20;;;;;13.81;44.92;99691.75;7558259;23;97751;-68
2021/10/23 16:27:53;;;;;;;;;10.25;9.50;;;;;13.84;45.06;99691.28;7585794;23;97461;-68
2021/10/23 16:30:57;;;;;;;;;10.00;9.80;;;;;13.87;45.01;99695.47;7586447;23;96814;-64
2021/10/23 16:34:01;;;;;;;;;6.40;6.00;;;;;13.75;44.33;99702.66;7583607;23;98424;-65
2021/10/23 16:37:04;;;;;;;;;3.60;3.40;;;;;13.63;44.33;99693.59;7586760;23;96843;-65
2021/10/23 16:40:09;;;;;;;;;3.00;2.00;;;;;13.44;44.26;99682.69;7586259;23;96540;-64
2021/10/23 16:43:14;;;;;;;;;2.00;2.00;;;;;13.46;44.92;99690.59;7559134;23;96632;-67
2021/10/23 16:46:32;;;;;;;;;3.40;2.40;;;;;13.33;45.54;99683.41;7586146;23;96501;-66
2021/10/23 16:49:35;;;;;;;;;5.00;5.00;;;;;13.26;45.84;99684.50;7559112;23;96936;-66
2021/10/23 16:52:39;;;;;;;;;3.20;2.20;;;;;13.28;45.93;99682.41;7560277;23;96492;-66
2021/10/23 16:55:42;;;;;;;;;4.00;3.80;;;;;13.25;46.15;99699.91;7586477;23;97050;-65
2021/10/23 16:58:47;;;;;;;;;5.00;5.00;;;;;13.25;45.91;99693.66;7559675;23;98387;-66
2021/10/23 17:01:51;;;;;;;;;6.00;6.00;;;;;13.15;46.38;99696.03;7586516;23;98647;-66
2021/10/23 17:04:54;;;;;;;;;4.00;4.00;;;;;13.07;46.86;99707.09;7586243;23;97485;-65
2021/10/23 17:07:58;;;;;;;;;5.00;5.00;;;;;13.02;47.12;99714.00;7585030;23;97510;-65
2021/10/23 17:11:02;;;;;;;;;6.00;6.00;;;;;13.00;47.33;99710.66;7585546;23;97167;-67
2021/10/23 17:14:07;;;;;;;;;9.00;7.40;;;;;13.03;47.34;99714.84;7584794;23;96777;-65
2021/10/23 17:17:11;;;;;;;;;7.00;6.50;;;;;12.97;47.53;99719.22;7585500;23;97864;-66
2021/10/23 17:20:15;;;;;;;;;8.00;7.25;;;;;12.87;47.54;99715.31;7586273;23;97113;-65
2021/10/23 17:23:26;;;;;;;;;9.00;8.60;;;;;12.98;47.31;99733.59;7585745;23;96406;-66
2021/10/23 17:26:33;;;;;;;;;8.00;8.00;;;;;13.01;47.00;99736.69;7585295;23;97030;-66
2021/10/23 17:29:37;;;;;;;;;10.00;9.00;;;;;12.98;47.05;99739.84;7586194;23;96950;-65
2021/10/23 17:32:42;;;;;;;;;11.75;10.00;;;;;12.92;47.38;99738.00;7558866;23;96529;-67
2021/10/23 17:35:45;;;;;;;;;12.40;11.00;;;;;12.91;47.21;99749.88;7585818;23;96916;-66
2021/10/23 17:38:49;;;;;;;;;13.00;12.00;;;;;12.82;47.43;99756.56;7558332;23;99521;-68
2021/10/23 17:41:53;;;;;;;;;14.00;12.00;;;;;12.82;47.55;99761.97;7585624;23;96428;-69
2021/10/23 17:44:58;;;;;;;;;14.40;14.00;;;;;12.77;47.52;99761.78;7534227;23;96607;-66
2021/10/23 17:48:02;;;;;;;;;16.00;14.00;;;;;12.81;47.48;99771.13;7585986;23;97845;-68